Terminal Aerodrome Forecast
Issued by NWS Nashville, TN

Home | Current Version | Previous Version | Text Only | Print | Product List | Glossary On
Versions: 1 2 3 4 5 6 7 8 9 10 11 12 13 14 15 16 17 18 19 20 21 22 23 24 25 26 27
597
FTUS44 KOHX 270526
TAFCSV
TAF
KCSV 270526Z 2706/2806 VRB04KT P6SM BKN100
     FM271200 VRB03KT P6SM VCSH OVC080
     FM271500 16008KT P6SM -SHRA BKN050 OVC100
     FM272000 18012G17KT P6SM OVC050=

USA.gov is the U.S. government's official web portal to all federal, state and local government web resources and services.